Flanders, Canada
Current Conditions -  °F | °C
As of 5:33 PM on Wednesday 22 Oct 2014 (Local Time) from KCDD Reporting Station
Clear Clear  
Wind Chill: 54°   Ceiling: Unl
Heat Index: 54°   Visibility: 10mi
Dew Point: 37°   Wind: 3mph
Humidity: 54%   Direction: 150°SSE
Pressure: 29.98"   Gusts: 16mph
Location:  48.73°N, 92.08°W
Report Text: KCDD 222233Z AUTO 15003G14KT 10SM CLR 12/03 A2998 RMK AO2
Loading
Personal Weather Stations






























Interactive Weather Map
Tropical Storm Tracking
New forecast layout! Learn more

10-Day Weather Forecast

Advertisements
Track Severe Weather on mobile